Time;durP1;ratioP1;P1;durP2;ratioP2;P2;SDS_P1;SDS_P2;PMS_P1;PMS_P2;Temp;Humidity;BMP_temperature;BMP_pressure;BME280_temperature;BME280_humidity;BME280_pressure;Samples;Min_cycle;Max_cycle;Signal;HPM_P1;HPM_P2
2022/05/01 00:00:36;;;;;;;;;;;;;;;12.80;60.76;98344.00;4977183;28;19926;-64
2022/05/01 00:03:04;;;;;;;;;;;;;;;12.83;60.62;98346.09;4978044;28;19932;-66
2022/05/01 00:05:31;;;;;;;;;;;;;;;12.61;61.19;98346.97;4989466;28;20370;-65
2022/05/01 00:08:05;;;;;;;;;;;;;;;12.50;61.77;98349.16;4976317;28;20392;-65
2022/05/01 00:10:33;;;;;;;;;;;;;;;12.45;61.94;98341.13;4976093;28;19972;-65
2022/05/01 00:13:02;;;;;;;;;;;;;;;12.53;61.87;98351.25;4975258;28;19933;-61
2022/05/01 00:15:55;;;;;;;;;;;;;;;12.53;61.77;98348.53;4977008;28;20012;-64
2022/05/01 00:18:23;;;;;;;;;;;;;;;12.47;62.06;98347.06;4977452;28;19926;-58
2022/05/01 00:20:51;;;;;;;;;;;;;;;12.43;62.15;98345.28;4974562;28;19981;-65
2022/05/01 00:23:21;;;;;;;;;;;;;;;12.39;62.50;98345.09;4976022;28;20379;-66
2022/05/01 00:25:51;;;;;;;;;;;;;;;12.43;62.73;98348.81;4978241;28;19960;-63
2022/05/01 00:28:19;;;;;;;;;;;;;;;12.53;61.85;98343.09;4975178;28;20102;-65
2022/05/01 00:30:48;;;;;;;;;;;;;;;12.50;62.25;98338.25;4976340;28;20340;-64
2022/05/01 00:38:49;;;;;;;;;;;;;;;12.57;61.80;98341.34;4980168;28;19937;-65
2022/05/01 00:41:17;;;;;;;;;;;;;;;12.58;61.79;98336.69;4978980;28;19930;-64
2022/05/01 00:44:03;;;;;;;;;;;;;;;12.55;62.06;98329.16;4976115;28;19925;-64
2022/05/01 00:46:32;;;;;;;;;;;;;;;12.58;61.91;98334.78;4976533;28;19985;-63
2022/05/01 00:49:01;;;;;;;;;;;;;;;12.54;62.12;98333.78;4959576;28;19941;-61
2022/05/01 00:51:29;;;;;;;;;;;;;;;12.51;62.08;98342.59;4979764;28;19936;-63
2022/05/01 00:53:59;;;;;;;;;;;;;;;12.52;62.05;98333.31;4966919;28;19988;-65
2022/05/01 00:56:27;;;;;;;;;;;;;;;12.50;62.34;98342.91;4967645;28;20291;-65
2022/05/01 00:58:55;;;;;;;;;;;;;;;12.37;62.55;98335.63;4978677;28;19956;-66
2022/05/01 01:01:23;;;;;;;;;;;;;;;12.41;62.38;98351.06;4991995;28;20338;-61
2022/05/01 01:03:53;;;;;;;;;;;;;;;12.36;62.55;98345.72;4981613;28;19988;-64
2022/05/01 01:06:23;;;;;;;;;;;;;;;12.44;62.19;98342.22;4979113;28;19934;-62
2022/05/01 01:08:50;;;;;;;;;;;;;;;12.42;62.20;98336.31;4978844;28;19929;-64
2022/05/01 01:11:23;;;;;;;;;;;;;;;12.41;62.45;98344.78;4973497;28;20016;-65
2022/05/01 01:14:16;;;;;;;;;;;;;;;12.30;62.62;98341.50;4979254;28;19936;-65
2022/05/01 01:16:45;;;;;;;;;;;;;;;12.16;62.96;98340.81;4977302;28;19926;-65
2022/05/01 01:19:13;;;;;;;;;;;;;;;12.20;63.07;98336.34;4974878;28;19930;-65
2022/05/01 01:21:42;;;;;;;;;;;;;;;12.05;63.36;98335.59;4983791;28;20349;-65
2022/05/01 01:24:10;;;;;;;;;;;;;;;12.06;63.51;98331.75;4980247;28;19933;-63
2022/05/01 01:26:37;;;;;;;;;;;;;;;12.17;63.17;98336.94;4975725;28;20374;-64
2022/05/01 01:31:40;;;;;;;;;;;;;;;12.14;63.38;98327.47;4975648;28;20382;-65
2022/05/01 01:31:53;;;;;;;;;;;;;;;12.35;62.61;98335.13;4975583;28;19934;-64
2022/05/01 01:34:21;;;;;;;;;;;;;;;12.36;62.41;98332.09;4975750;28;20326;-65
2022/05/01 01:36:51;;;;;;;;;;;;;;;12.37;62.13;98324.75;4971316;28;19984;-65
2022/05/01 01:39:19;;;;;;;;;;;;;;;12.27;62.67;98325.81;4973428;28;20008;-65
2022/05/01 01:41:47;;;;;;;;;;;;;;;12.17;62.83;98315.16;4992438;28;19926;-65
2022/05/01 01:47:07;;;;;;;;;;;;;;;12.16;62.95;98314.38;4971747;28;20298;-65
2022/05/01 01:49:35;;;;;;;;;;;;;;;12.34;62.11;98317.97;4973586;28;19926;-66
2022/05/01 01:52:05;;;;;;;;;;;;;;;12.30;62.36;98323.25;4973611;28;20438;-65
2022/05/01 01:54:58;;;;;;;;;;;;;;;12.10;62.97;98315.63;4973558;28;20076;-63
2022/05/01 01:57:27;;;;;;;;;;;;;;;12.16;62.79;98313.56;4974391;28;19932;-65
2022/05/01 01:59:55;;;;;;;;;;;;;;;12.11;62.87;98317.22;4979008;28;19985;-65
2022/05/01 02:02:23;;;;;;;;;;;;;;;12.04;63.06;98306.78;4981777;28;19925;-59
2022/05/01 02:04:51;;;;;;;;;;;;;;;12.12;62.95;98307.94;4979453;28;20113;-65
2022/05/01 02:07:21;;;;;;;;;;;;;;;12.14;62.77;98310.31;4975011;28;19930;-65
2022/05/01 02:09:49;;;;;;;;;;;;;;;12.23;62.58;98313.91;4974510;28;19933;-63
2022/05/01 02:12:20;;;;;;;;;;;;;;;12.09;62.83;98302.28;4979468;28;19929;-65
2022/05/01 02:14:48;;;;;;;;;;;;;;;11.99;63.17;98304.16;4974918;28;19973;-64
2022/05/01 02:17:18;;;;;;;;;;;;;;;12.02;63.08;98308.97;4964159;28;20037;-63
2022/05/01 02:19:46;;;;;;;;;;;;;;;11.99;63.29;98314.25;4976786;28;19940;-65
2022/05/01 02:22:15;;;;;;;;;;;;;;;12.01;63.18;98309.31;4973150;28;20357;-65
2022/05/01 02:24:43;;;;;;;;;;;;;;;11.99;63.32;98306.91;4976144;28;20223;-65
2022/05/01 02:27:12;;;;;;;;;;;;;;;11.97;63.47;98302.84;4976138;28;20334;-64
2022/05/01 02:29:39;;;;;;;;;;;;;;;11.85;63.58;98303.44;4980461;28;19930;-65
2022/05/01 02:32:07;;;;;;;;;;;;;;;11.89;63.65;98307.16;4975533;28;19926;-65
2022/05/01 02:35:00;;;;;;;;;;;;;;;11.90;63.52;98303.31;4974253;28;19926;-61
2022/05/01 02:37:34;;;;;;;;;;;;;;;11.76;64.20;98299.81;4976403;28;20441;-65
2022/05/01 02:40:05;;;;;;;;;;;;;;;11.82;63.89;98300.50;4977764;28;19934;-65
2022/05/01 02:42:34;;;;;;;;;;;;;;;11.96;63.39;98307.50;4978642;28;20345;-66
2022/05/01 02:45:02;;;;;;;;;;;;;;;11.98;63.44;98312.63;4975897;28;20370;-62
2022/05/01 02:47:30;;;;;;;;;;;;;;;11.98;63.42;98309.91;4972867;28;20120;-64
2022/05/01 02:49:57;;;;;;;;;;;;;;;11.97;63.39;98308.31;4975272;28;20430;-65
2022/05/01 02:52:51;;;;;;;;;;;;;;;11.86;63.97;98312.41;4977372;28;19930;-65
2022/05/01 02:55:21;;;;;;;;;;;;;;;11.89;63.93;98307.16;4980663;28;19926;-65
2022/05/01 02:57:49;;;;;;;;;;;;;;;11.85;63.98;98313.50;4968733;28;19980;-65
2022/05/01 03:00:17;;;;;;;;;;;;;;;11.89;63.93;98318.03;4977909;28;19929;-65
2022/05/01 03:02:46;;;;;;;;;;;;;;;11.89;64.03;98311.78;4976678;28;20437;-65
2022/05/01 03:08:06;;;;;;;;;;;;;;;11.87;64.08;98306.63;4981518;28;19942;-66
2022/05/01 03:10:36;;;;;;;;;;;;;;;11.98;63.64;98313.44;4984818;28;19933;-64
2022/05/01 03:13:04;;;;;;;;;;;;;;;12.01;63.50;98307.38;4967448;28;19934;-66
2022/05/01 03:15:31;;;;;;;;;;;;;;;11.92;63.86;98301.06;4979795;28;19930;-66
2022/05/01 03:23:32;;;;;;;;;;;;;;;11.97;63.58;98305.59;4978491;28;20353;-66
2022/05/01 03:26:01;;;;;;;;;;;;;;;11.93;63.89;98305.41;4983635;28;19926;-66
2022/05/01 03:28:32;;;;;;;;;;;;;;;11.87;64.19;98301.19;4977381;28;20397;-67
2022/05/01 03:31:00;;;;;;;;;;;;;;;11.81;64.59;98307.84;4974448;28;19980;-63
2022/05/01 03:33:28;;;;;;;;;;;;;;;11.74;64.58;98307.47;4978020;28;19934;-65
2022/05/01 03:35:57;;;;;;;;;;;;;;;11.83;64.15;98305.66;4981381;28;19926;-64
2022/05/01 03:38:25;;;;;;;;;;;;;;;11.92;63.86;98301.06;4995367;28;19926;-63
2022/05/01 03:40:53;;;;;;;;;;;;;;;11.97;63.66;98300.94;4981124;28;19940;-58
2022/05/01 03:43:25;;;;;;;;;;;;;;;11.87;63.92;98301.19;4979247;28;19930;-67
2022/05/01 03:45:53;;;;;;;;;;;;;;;11.84;64.16;98303.75;4979924;28;20426;-59
2022/05/01 03:48:20;;;;;;;;;;;;;;;11.72;64.72;98309.72;4974226;28;20278;-64
2022/05/01 03:50:51;;;;;;;;;;;;;;;11.82;64.07;98304.03;4973811;28;21297;-64
2022/05/01 03:53:19;;;;;;;;;;;;;;;11.77;64.37;98315.00;4976375;28;20387;-66
2022/05/01 03:55:48;;;;;;;;;;;;;;;11.88;64.05;98319.16;4979407;28;19930;-62
2022/05/01 03:58:16;;;;;;;;;;;;;;;11.75;64.64;98312.59;4975144;28;20000;-65
2022/05/01 04:00:47;;;;;;;;;;;;;;;11.73;64.41;98314.84;4977135;28;19988;-61
2022/05/01 04:03:40;;;;;;;;;;;;;;;11.85;63.99;98313.50;4971989;28;19930;-64
2022/05/01 04:06:09;;;;;;;;;;;;;;;11.79;64.19;98313.59;4978131;28;20264;-60
2022/05/01 04:08:42;;;;;;;;;;;;;;;11.84;64.15;98318.16;4977505;28;19930;-66
2022/05/01 04:11:10;;;;;;;;;;;;;;;11.96;63.78;98321.13;4978653;28;19932;-65
2022/05/01 04:13:40;;;;;;;;;;;;;;;11.97;63.67;98320.00;4997475;28;19933;-65
2022/05/01 04:16:10;;;;;;;;;;;;;;;12.11;62.97;98316.41;4971517;28;20362;-63
2022/05/01 04:18:40;;;;;;;;;;;;;;;12.13;62.98;98319.63;4977588;28;19933;-64
2022/05/01 04:21:08;;;;;;;;;;;;;;;12.06;62.74;98329.03;4974951;28;19932;-65
2022/05/01 04:23:38;;;;;;;;;;;;;;;12.07;62.44;98327.13;4976198;28;19930;-65
2022/05/01 04:26:06;;;;;;;;;;;;;;;12.04;62.59;98325.84;4977310;28;19930;-65
2022/05/01 04:28:34;;;;;;;;;;;;;;;11.92;63.21;98333.72;4977046;28;20378;-66
2022/05/01 04:31:02;;;;;;;;;;;;;;;11.85;63.48;98332.56;4975482;28;19930;-65
2022/05/01 04:33:34;;;;;;;;;;;;;;;11.77;63.82;98332.19;4975834;28;19993;-66
2022/05/01 04:36:02;;;;;;;;;;;;;;;11.87;63.73;98336.56;4975851;28;19985;-64
2022/05/01 04:38:58;;;;;;;;;;;;;;;12.06;63.16;98334.47;4978154;28;20396;-66
2022/05/01 04:41:26;;;;;;;;;;;;;;;12.02;62.85;98336.22;4976882;28;19926;-65
2022/05/01 04:43:54;;;;;;;;;;;;;;;11.94;63.03;98338.88;4977380;28;20016;-65
2022/05/01 04:46:22;;;;;;;;;;;;;;;12.07;62.95;98338.00;4980815;28;19929;-64
2022/05/01 04:48:51;;;;;;;;;;;;;;;12.15;62.57;98333.75;4976675;28;19969;-63
2022/05/01 04:51:19;;;;;;;;;;;;;;;12.06;62.76;98345.38;4973397;28;19926;-66
2022/05/01 04:54:11;;;;;;;;;;;;;;;12.07;62.91;98340.72;4973471;28;19933;-65
2022/05/01 04:59:25;;;;;;;;;;;;;;;11.97;63.05;98344.50;4965602;28;20016;-59
2022/05/01 05:01:53;;;;;;;;;;;;;;;12.05;62.90;98345.69;4969397;28;19933;-55
2022/05/01 05:04:23;;;;;;;;;;;;;;;11.97;63.36;98347.22;4985961;28;20016;-65
2022/05/01 05:06:54;;;;;;;;;;;;;;;11.95;63.10;98345.94;4974952;28;20029;-63
2022/05/01 05:12:10;;;;;;;;;;;;;;;11.85;63.68;98357.88;4978350;28;19930;-66
2022/05/01 05:14:43;;;;;;;;;;;;;;;11.87;63.83;98363.81;4972095;28;20389;-66
2022/05/01 05:17:11;;;;;;;;;;;;;;;12.02;63.35;98359.91;4979048;28;19934;-66
2022/05/01 05:19:41;;;;;;;;;;;;;;;12.14;62.69;98359.34;4973851;28;20025;-66
2022/05/01 05:22:09;;;;;;;;;;;;;;;12.04;63.36;98366.69;4973620;28;19989;-66
2022/05/01 05:24:36;;;;;;;;;;;;;;;12.11;62.90;98360.00;4971301;28;19937;-66
2022/05/01 05:27:04;;;;;;;;;;;;;;;11.96;63.32;98364.69;4969295;28;19945;-61
2022/05/01 05:29:32;;;;;;;;;;;;;;;11.83;63.63;98368.28;4972987;28;19926;-62
2022/05/01 05:32:00;;;;;;;;;;;;;;;12.01;63.00;98367.28;4970466;28;20302;-64
2022/05/01 05:34:28;;;;;;;;;;;;;;;12.13;62.79;98365.91;4976551;28;21002;-66
2022/05/01 05:36:57;;;;;;;;;;;;;;;12.16;62.53;98362.59;4963943;28;20321;-66
2022/05/01 05:39:25;;;;;;;;;;;;;;;12.03;63.11;98365.03;4970405;28;19940;-66
2022/05/01 05:41:53;;;;;;;;;;;;;;;12.07;62.86;98366.03;4971939;28;20021;-56
2022/05/01 05:44:21;;;;;;;;;;;;;;;12.01;63.10;98366.47;4971071;28;20446;-68
2022/05/01 05:46:49;;;;;;;;;;;;;;;12.10;63.01;98370.09;4971513;28;20393;-66
2022/05/01 05:49:17;;;;;;;;;;;;;;;12.16;62.87;98368.03;4968848;28;19926;-66
2022/05/01 05:51:52;;;;;;;;;;;;;;;12.18;63.18;98373.97;4975740;28;19933;-66
2022/05/01 05:54:24;;;;;;;;;;;;;;;12.25;62.76;98377.03;4977239;28;20028;-67
2022/05/01 05:56:53;;;;;;;;;;;;;;;12.29;62.46;98387.00;4970993;28;20280;-56
2022/05/01 05:59:45;;;;;;;;;;;;;;;12.35;62.29;98386.88;4958561;28;20454;-65
2022/05/01 06:02:14;;;;;;;;;;;;;;;12.37;62.37;98384.69;4969975;28;19937;-65
2022/05/01 06:04:42;;;;;;;;;;;;;;;12.51;62.03;98383.47;4971566;28;19926;-64
2022/05/01 06:07:09;;;;;;;;;;;;;;;12.51;61.93;98382.66;4973427;28;19971;-65
2022/05/01 06:09:41;;;;;;;;;;;;;;;12.57;61.72;98382.25;4971387;28;20043;-65
2022/05/01 06:12:10;;;;;;;;;;;;;;;12.73;61.13;98384.53;4969198;28;19930;-65
2022/05/01 06:14:44;;;;;;;;;;;;;;;12.81;60.92;98383.78;4976141;28;19963;-65
2022/05/01 06:17:13;;;;;;;;;;;;;;;12.68;61.36;98384.69;4982909;28;20110;-66
2022/05/01 06:19:41;;;;;;;;;;;;;;;12.68;61.44;98385.50;4972297;28;19973;-63
2022/05/01 06:22:09;;;;;;;;;;;;;;;12.66;61.12;98387.72;4969039;28;20428;-67
2022/05/01 06:24:37;;;;;;;;;;;;;;;12.78;61.26;98387.13;4980388;28;20378;-68
2022/05/01 06:27:07;;;;;;;;;;;;;;;12.88;60.63;98377.88;4973853;28;19996;-67
2022/05/01 06:29:35;;;;;;;;;;;;;;;12.86;60.79;98383.66;4977115;28;19934;-55
2022/05/01 06:32:27;;;;;;;;;;;;;;;13.03;60.55;98372.78;4975034;28;19933;-59
2022/05/01 06:38:15;;;;;;;;;;;;;;;13.37;59.13;98374.06;4979585;28;19941;-59
2022/05/01 06:40:44;;;;;;;;;;;;;;;13.48;59.01;98378.09;4978837;28;19934;-57
2022/05/01 06:43:13;;;;;;;;;;;;;;;13.54;57.97;98371.34;4974964;28;20446;-56
2022/05/01 06:45:41;;;;;;;;;;;;;;;13.62;57.71;98377.94;4973308;28;20437;-57
2022/05/01 06:48:10;;;;;;;;;;;;;;;13.54;57.23;98373.28;4973536;28;19930;-56
2022/05/01 06:50:38;;;;;;;;;;;;;;;13.52;58.07;98370.03;4976713;28;19930;-57
2022/05/01 06:53:06;;;;;;;;;;;;;;;13.57;58.14;98378.88;4991431;28;19930;-57
2022/05/01 06:55:34;;;;;;;;;;;;;;;13.76;56.81;98381.31;4975738;28;20352;-57
2022/05/01 06:58:02;;;;;;;;;;;;;;;13.85;56.26;98384.06;4978637;28;20504;-56
2022/05/01 07:00:31;;;;;;;;;;;;;;;13.81;56.37;98377.63;4978032;28;20472;-57
2022/05/01 07:02:59;;;;;;;;;;;;;;;13.98;55.83;98388.56;4970415;28;19930;-56
2022/05/01 07:05:27;;;;;;;;;;;;;;;13.88;55.73;98384.22;4987367;28;19930;-57
2022/05/01 07:08:19;;;;;;;;;;;;;;;13.87;55.92;98387.28;4976041;28;19933;-58
2022/05/01 07:11:16;;;;;;;;;;;;;;;13.80;56.04;98385.03;4977485;28;19952;-58
2022/05/01 07:13:44;;;;;;;;;;;;;;;13.55;56.80;98389.34;4974822;28;19930;-59
2022/05/01 07:16:13;;;;;;;;;;;;;;;13.65;57.16;98388.22;4972429;28;19933;-58
2022/05/01 07:18:41;;;;;;;;;;;;;;;13.62;57.06;98391.59;4976104;28;19933;-58
2022/05/01 07:21:09;;;;;;;;;;;;;;;13.67;56.67;98394.16;4976881;28;19933;-58
2022/05/01 07:23:37;;;;;;;;;;;;;;;13.81;57.36;98383.91;4972031;28;19929;-57
2022/05/01 07:26:08;;;;;;;;;;;;;;;14.14;55.93;98383.41;4976090;28;19937;-55
2022/05/01 07:28:36;;;;;;;;;;;;;;;14.25;55.83;98387.41;4976420;28;19958;-58
2022/05/01 07:31:07;;;;;;;;;;;;;;;14.62;54.32;98390.59;4978933;28;19929;-56
2022/05/01 07:33:38;;;;;;;;;;;;;;;14.71;53.67;98391.38;4973879;28;19933;-58
2022/05/01 07:36:07;;;;;;;;;;;;;;;14.79;53.96;98390.53;4984040;28;19929;-58
2022/05/01 07:38:35;;;;;;;;;;;;;;;14.86;53.17;98390.00;4978950;28;19955;-56
2022/05/01 07:41:05;;;;;;;;;;;;;;;14.71;53.27;98387.84;4979734;28;19933;-59
2022/05/01 07:43:33;;;;;;;;;;;;;;;14.73;53.91;98377.38;4975864;28;19934;-57
2022/05/01 07:46:02;;;;;;;;;;;;;;;14.78;53.36;98378.00;4977931;28;19932;-53
2022/05/01 07:48:32;;;;;;;;;;;;;;;14.97;52.60;98383.06;4978297;28;19925;-56
2022/05/01 07:51:01;;;;;;;;;;;;;;;14.99;52.72;98383.53;4976548;28;20352;-51
2022/05/01 07:53:29;;;;;;;;;;;;;;;15.03;52.24;98391.91;4980244;28;19926;-58
2022/05/01 07:55:58;;;;;;;;;;;;;;;14.81;53.31;98387.47;4978213;28;19926;-58
2022/05/01 07:58:27;;;;;;;;;;;;;;;14.72;52.86;98381.22;4973955;28;19981;-56
2022/05/01 08:00:55;;;;;;;;;;;;;;;14.67;52.81;98385.75;4973032;28;19930;-56
2022/05/01 08:06:13;;;;;;;;;;;;;;;14.73;52.19;98378.16;4976446;28;19984;-59
2022/05/01 08:08:41;;;;;;;;;;;;;;;14.83;52.71;98385.22;4982710;28;19949;-55
2022/05/01 08:11:12;;;;;;;;;;;;;;;14.75;53.31;98388.75;4976450;28;19930;-55
2022/05/01 08:13:40;;;;;;;;;;;;;;;14.76;53.56;98379.47;4975265;28;20389;-54
2022/05/01 08:16:07;;;;;;;;;;;;;;;15.04;53.10;98386.09;4978961;28;20036;-55
2022/05/01 08:21:36;;;;;;;;;;;;;;;15.10;52.75;98389.44;4907997;29;19927;-56
2022/05/01 08:24:04;;;;;;;;;;;;;;;15.39;51.96;98383.16;4956909;28;20020;-57
2022/05/01 08:26:33;;;;;;;;;;;;;;;15.46;51.00;98389.72;4975921;28;19930;-57
2022/05/01 08:29:01;;;;;;;;;;;;;;;15.59;50.69;98390.59;4972532;28;19969;-56
2022/05/01 08:31:54;;;;;;;;;;;;;;;15.55;50.42;98380.66;4974593;28;19926;-60
2022/05/01 08:34:23;;;;;;;;;;;;;;;15.51;51.03;98380.53;4971543;28;19954;-55
2022/05/01 08:36:52;;;;;;;;;;;;;;;15.49;50.32;98380.03;4976135;28;19930;-56
2022/05/01 08:39:21;;;;;;;;;;;;;;;15.53;50.50;98377.44;4978166;28;19937;-57
2022/05/01 08:41:49;;;;;;;;;;;;;;;15.56;49.75;98374.84;4973442;28;19933;-55
2022/05/01 08:44:16;;;;;;;;;;;;;;;15.65;49.98;98380.28;4976149;28;19930;-57
2022/05/01 08:46:58;;;;;;;;;;;;;;;15.84;49.80;98377.09;4971681;28;20359;-58
2022/05/01 08:49:27;;;;;;;;;;;;;;;16.05;49.95;98377.91;4970120;28;19936;-57
2022/05/01 08:51:56;;;;;;;;;;;;;;;16.42;48.05;98378.03;4973429;28;19934;-54
2022/05/01 08:54:25;;;;;;;;;;;;;;;16.32;48.07;98372.97;4970462;28;19957;-57
2022/05/01 08:56:52;;;;;;;;;;;;;;;16.26;47.96;98382.56;4971277;28;19980;-49
2022/05/01 08:59:20;;;;;;;;;;;;;;;16.11;48.58;98371.06;4973089;28;20302;-58
2022/05/01 09:01:52;;;;;;;;;;;;;;;16.07;48.15;98367.38;4974105;28;19932;-57
2022/05/01 09:04:19;;;;;;;;;;;;;;;16.07;47.36;98378.34;4973172;28;19926;-57
2022/05/01 09:06:47;;;;;;;;;;;;;;;16.10;48.16;98377.69;4977480;28;19934;-58
2022/05/01 09:09:19;;;;;;;;;;;;;;;16.13;47.95;98381.69;4961531;28;20013;-56
2022/05/01 09:14:58;;;;;;;;;;;;;;;16.47;47.46;98388.78;4958487;28;19933;-56
2022/05/01 09:17:26;;;;;;;;;;;;;;;16.66;46.60;98389.06;4953584;28;19926;-57
2022/05/01 09:19:55;;;;;;;;;;;;;;;16.63;47.32;98383.47;4954304;28;19949;-57
2022/05/01 09:22:23;;;;;;;;;;;;;;;16.57;48.25;98376.59;4958844;28;20004;-50
2022/05/01 09:24:54;;;;;;;;;;;;;;;16.68;48.60;98381.31;4954760;28;19927;-58
2022/05/01 09:27:27;;;;;;;;;;;;;;;16.49;48.60;98372.78;4958965;28;19932;-50
2022/05/01 09:30:09;;;;;;;;;;;;;;;16.37;47.60;98381.78;4952667;28;19926;-58
2022/05/01 09:32:38;;;;;;;;;;;;;;;16.37;48.04;98386.47;4953205;28;19937;-57
2022/05/01 09:35:07;;;;;;;;;;;;;;;16.33;47.91;98382.78;4957722;28;20004;-58
2022/05/01 09:38:09;;;;;;;;;;;;;;;16.29;47.92;98379.91;4958957;28;19934;-50
2022/05/01 09:43:34;;;;;;;;;;;;;;;16.36;48.41;98373.91;4949554;28;19973;-56
2022/05/01 09:46:12;;;;;;;;;;;;;;;16.34;48.29;98376.16;4957985;28;19957;-57
2022/05/01 09:48:40;;;;;;;;;;;;;;;16.43;48.28;98368.66;4952815;28;20029;-54
2022/05/01 09:51:14;;;;;;;;;;;;;;;16.38;47.03;98366.94;4953806;28;19969;-57
2022/05/01 09:53:42;;;;;;;;;;;;;;;16.59;46.87;98375.09;4954059;28;19927;-57
2022/05/01 09:56:12;;;;;;;;;;;;;;;16.63;45.93;98364.25;4952103;28;20017;-57
2022/05/01 09:58:40;;;;;;;;;;;;;;;16.86;45.55;98367.41;4954850;28;20628;-57
2022/05/01 10:01:09;;;;;;;;;;;;;;;16.92;46.53;98374.28;4950866;28;20355;-58
2022/05/01 10:03:40;;;;;;;;;;;;;;;16.74;46.60;98368.19;4951949;28;19926;-57
2022/05/01 10:06:09;;;;;;;;;;;;;;;16.92;45.89;98364.09;4955596;28;19952;-58
2022/05/01 10:08:42;;;;;;;;;;;;;;;16.98;45.86;98359.19;4962836;28;19957;-58
2022/05/01 10:11:14;;;;;;;;;;;;;;;17.00;46.25;98351.41;4972105;28;19937;-58
2022/05/01 10:13:43;;;;;;;;;;;;;;;17.21;45.61;98352.09;4971539;28;19941;-58
2022/05/01 10:16:11;;;;;;;;;;;;;;;17.41;44.86;98346.81;4969314;28;19973;-57
2022/05/01 10:18:46;;;;;;;;;;;;;;;17.46;45.31;98344.63;4970296;28;19926;-58
2022/05/01 10:21:37;;;;;;;;;;;;;;;17.85;44.56;98352.47;4976832;28;19929;-58
2022/05/01 10:24:05;;;;;;;;;;;;;;;17.88;43.54;98344.31;4974054;28;19934;-58
2022/05/01 10:26:36;;;;;;;;;;;;;;;17.98;43.97;98340.28;4975571;28;19926;-56
2022/05/01 10:29:12;;;;;;;;;;;;;;;17.92;43.36;98338.94;4975104;28;19925;-56
2022/05/01 10:34:58;;;;;;;;;;;;;;;17.85;43.04;98341.50;4974863;28;19961;-56
2022/05/01 10:37:29;;;;;;;;;;;;;;;17.97;42.22;98324.94;4973915;28;20000;-58
2022/05/01 10:39:57;;;;;;;;;;;;;;;17.94;43.29;98328.38;4974038;28;19941;-57
2022/05/01 10:42:34;;;;;;;;;;;;;;;17.77;43.30;98330.28;4974833;28;20046;-57
2022/05/01 10:45:02;;;;;;;;;;;;;;;17.72;43.98;98325.00;4974373;28;20008;-57
2022/05/01 10:47:36;;;;;;;;;;;;;;;17.64;43.55;98334.19;4978938;28;19977;-56
2022/05/01 10:50:10;;;;;;;;;;;;;;;17.78;43.28;98322.81;4972623;28;20366;-57
2022/05/01 10:52:53;;;;;;;;;;;;;;;17.76;42.66;98325.94;4976222;28;19929;-57
2022/05/01 10:55:21;;;;;;;;;;;;;;;17.62;42.74;98325.47;4976218;28;19957;-57
2022/05/01 10:58:04;;;;;;;;;;;;;;;17.38;42.73;98320.03;4977423;28;19979;-56
2022/05/01 11:00:33;;;;;;;;;;;;;;;17.11;43.38;98314.13;4976068;28;19937;-53
2022/05/01 11:03:03;;;;;;;;;;;;;;;17.11;44.63;98311.38;4972560;28;20022;-50
2022/05/01 11:08:42;;;;;;;;;;;;;;;16.98;45.47;98318.00;4977683;28;19925;-58
2022/05/01 11:11:12;;;;;;;;;;;;;;;16.89;45.89;98315.41;4974502;28;19933;-50
2022/05/01 11:13:41;;;;;;;;;;;;;;;16.89;45.82;98317.34;4973149;28;19934;-57
2022/05/01 11:16:10;;;;;;;;;;;;;;;16.73;46.46;98315.28;4979709;28;19926;-58
2022/05/01 11:18:53;;;;;;;;;;;;;;;16.58;46.79;98309.63;4972237;28;19937;-56
2022/05/01 11:21:36;;;;;;;;;;;;;;;16.30;47.85;98309.44;4977495;28;20354;-57
2022/05/01 11:24:04;;;;;;;;;;;;;;;16.30;48.13;98301.19;4978964;28;19938;-57
2022/05/01 11:26:32;;;;;;;;;;;;;;;16.40;47.40;98293.34;4976463;28;19926;-57
2022/05/01 11:29:09;;;;;;;;;;;;;;;16.38;47.67;98294.84;4978486;28;19958;-49
2022/05/01 11:31:54;;;;;;;;;;;;;;;16.34;47.52;98300.19;4975566;28;19926;-55
2022/05/01 11:34:50;;;;;;;;;;;;;;;16.38;48.24;98301.13;4975013;28;19940;-57
2022/05/01 11:37:19;;;;;;;;;;;;;;;16.57;47.17;98300.59;4979906;28;19977;-57
2022/05/01 11:40:21;;;;;;;;;;;;;;;16.37;47.34;98298.72;4978294;28;20354;-53
2022/05/01 11:42:50;;;;;;;;;;;;;;;16.50;46.96;98297.59;4975610;28;19933;-53
2022/05/01 11:45:19;;;;;;;;;;;;;;;16.68;47.10;98299.00;4981148;28;20371;-57
2022/05/01 11:47:55;;;;;;;;;;;;;;;16.79;46.56;98301.31;4980475;28;19984;-54
2022/05/01 11:50:24;;;;;;;;;;;;;;;16.70;46.70;98299.44;4980044;28;19974;-50
2022/05/01 11:52:56;;;;;;;;;;;;;;;16.77;47.08;98299.69;4979121;28;20425;-57
2022/05/01 12:03:54;;;;;;;;;;;;;;;17.19;45.15;98282.97;4973195;28;19937;-50
2022/05/01 12:06:29;;;;;;;;;;;;;;;17.29;45.05;98282.50;4988974;28;20001;-57
2022/05/01 12:08:56;;;;;;;;;;;;;;;17.04;44.35;98291.91;4981145;28;19980;-58
2022/05/01 12:11:32;;;;;;;;;;;;;;;17.15;44.20;98284.84;4979757;28;20437;-57
2022/05/01 12:14:07;;;;;;;;;;;;;;;17.09;44.64;98277.97;4977531;28;19957;-57
2022/05/01 12:16:35;;;;;;;;;;;;;;;17.07;43.82;98282.22;4978689;28;19926;-57
2022/05/01 12:19:05;;;;;;;;;;;;;;;16.93;44.70;98277.06;4970002;28;19926;-57
2022/05/01 12:21:36;;;;;;;;;;;;;;;16.84;44.64;98279.16;4974651;28;20017;-58
2022/05/01 12:24:04;;;;;;;;;;;;;;;16.71;44.81;98281.88;4975274;28;19927;-58
2022/05/01 12:26:34;;;;;;;;;;;;;;;16.84;44.88;98279.94;4976185;28;19949;-57
2022/05/01 12:29:02;;;;;;;;;;;;;;;16.77;45.23;98280.50;4974731;28;20375;-56
2022/05/01 12:32:04;;;;;;;;;;;;;;;16.63;45.57;98285.50;4972552;28;19926;-58
2022/05/01 12:34:57;;;;;;;;;;;;;;;16.59;45.46;98284.59;4974435;28;19926;-58
2022/05/01 12:37:29;;;;;;;;;;;;;;;16.60;45.68;98279.91;4971952;28;19934;-57
2022/05/01 12:39:58;;;;;;;;;;;;;;;16.62;45.85;98275.69;4976063;28;20283;-55
2022/05/01 12:45:12;;;;;;;;;;;;;;;16.44;45.49;98277.03;4974137;28;19926;-58
2022/05/01 12:47:41;;;;;;;;;;;;;;;16.23;46.00;98275.16;4974919;28;19945;-58
2022/05/01 12:50:10;;;;;;;;;;;;;;;16.07;46.67;98274.19;4973848;28;19993;-58
2022/05/01 12:52:40;;;;;;;;;;;;;;;16.16;46.39;98279.59;4975575;28;19988;-56
2022/05/01 12:55:14;;;;;;;;;;;;;;;16.18;46.48;98275.38;4975290;28;19926;-58
2022/05/01 12:57:43;;;;;;;;;;;;;;;16.15;46.29;98270.59;4969463;28;20760;-54
2022/05/01 13:00:11;;;;;;;;;;;;;;;16.12;46.85;98274.00;4969756;28;19933;-58
2022/05/01 13:02:41;;;;;;;;;;;;;;;16.08;47.08;98262.09;4975165;28;20382;-57
2022/05/01 13:05:34;;;;;;;;;;;;;;;16.12;47.04;98270.44;4974159;28;20260;-58
2022/05/01 13:08:54;;;;;;;;;;;;;;;16.03;47.02;98273.25;4971476;28;19922;-55
2022/05/01 13:11:47;;;;;;;;;;;;;;;16.03;47.33;98273.25;4975508;28;19925;-54
2022/05/01 13:17:18;;;;;;;;;;;;;;;16.25;45.91;98266.59;4973320;28;19976;-56
2022/05/01 13:19:46;;;;;;;;;;;;;;;16.20;46.38;98267.63;4973110;28;19980;-57
2022/05/01 13:22:15;;;;;;;;;;;;;;;16.18;45.94;98258.13;4971976;28;19957;-55
2022/05/01 13:24:44;;;;;;;;;;;;;;;16.10;46.05;98257.09;4976701;28;19930;-57
2022/05/01 13:30:07;;;;;;;;;;;;;;;16.15;46.10;98258.81;4971483;28;19928;-57
2022/05/01 13:32:35;;;;;;;;;;;;;;;16.05;46.50;98257.31;4981563;28;19953;-57
2022/05/01 13:35:03;;;;;;;;;;;;;;;16.13;46.71;98255.59;4969653;28;19970;-58
2022/05/01 13:38:00;;;;;;;;;;;;;;;16.23;46.23;98255.16;4973763;28;19922;-49
2022/05/01 13:46:06;;;;;;;;;;;;;;;16.29;46.38;98251.06;4974540;28;20902;-58
2022/05/01 13:48:36;;;;;;;;;;;;;;;16.39;46.02;98249.81;4975474;28;20412;-57
2022/05/01 13:51:07;;;;;;;;;;;;;;;16.42;46.38;98240.94;4974023;28;19922;-58
2022/05/01 13:54:00;;;;;;;;;;;;;;;16.58;45.73;98250.06;4972576;28;20025;-57
2022/05/01 13:56:28;;;;;;;;;;;;;;;16.59;45.68;98246.19;4978368;28;20306;-57
2022/05/01 13:58:56;;;;;;;;;;;;;;;16.68;44.86;98243.34;4973123;28;20416;-57
2022/05/01 14:01:25;;;;;;;;;;;;;;;16.70;45.04;98236.34;4974820;28;19965;-57
2022/05/01 14:03:57;;;;;;;;;;;;;;;16.65;45.29;98244.00;4974068;28;19925;-54
2022/05/01 14:06:25;;;;;;;;;;;;;;;16.61;45.34;98238.41;4974326;28;19921;-58
2022/05/01 14:08:53;;;;;;;;;;;;;;;16.61;45.53;98232.91;4974689;28;19926;-57
2022/05/01 14:11:22;;;;;;;;;;;;;;;16.59;45.26;98231.66;4972991;28;20183;-58
2022/05/01 14:13:49;;;;;;;;;;;;;;;16.72;45.02;98220.41;4973893;28;19929;-55
2022/05/01 14:16:20;;;;;;;;;;;;;;;16.66;44.51;98223.66;4976694;28;19926;-58